Time;durP1;ratioP1;P1;durP2;ratioP2;P2;SDS_P1;SDS_P2;PMS_P1;PMS_P2;Temp;Humidity;BMP_temperature;BMP_pressure;BME280_temperature;BME280_humidity;BME280_pressure;Samples;Min_cycle;Max_cycle;Signal;HPM_P1;HPM_P2
2022/04/02 00:01:43;;;;;;;6.80;2.80;;;0.60;99.90;;;;;;5064416;28;20073;-32
2022/04/02 00:04:09;;;;;;;6.53;2.97;;;0.50;99.90;;;;;;5064171;28;20037;-36
2022/04/02 00:06:36;;;;;;;5.97;3.00;;;0.50;99.90;;;;;;5034857;28;20048;-30
2022/04/02 00:09:02;;;;;;;8.57;3.13;;;0.50;99.90;;;;;;5040442;28;20045;-33
2022/04/02 00:11:28;;;;;;;8.27;2.97;;;0.40;99.90;;;;;;5044536;28;20033;-35
2022/04/02 00:13:54;;;;;;;4.50;2.60;;;0.40;99.90;;;;;;5044598;28;20059;-34
2022/04/02 00:16:20;;;;;;;5.10;2.87;;;0.40;99.90;;;;;;5050922;28;20044;-34
2022/04/02 00:18:49;;;;;;;5.80;2.67;;;0.30;99.90;;;;;;5060487;28;20388;-35
2022/04/02 00:21:15;;;;;;;4.77;2.80;;;0.30;99.90;;;;;;5064021;28;20107;-32
2022/04/02 00:23:43;;;;;;;7.43;3.10;;;0.30;99.90;;;;;;5064056;28;20045;-32
2022/04/02 00:26:15;;;;;;;4.53;2.90;;;0.20;99.90;;;;;;5056981;28;20046;-33
2022/04/02 00:28:43;;;;;;;8.50;3.00;;;0.20;99.90;;;;;;5059217;28;20049;-31
2022/04/02 00:31:10;;;;;;;5.77;3.17;;;0.20;99.90;;;;;;5064364;28;20090;-32
2022/04/02 00:33:36;;;;;;;11.93;3.17;;;0.10;99.90;;;;;;5063093;28;20414;-32
2022/04/02 00:36:03;;;;;;;5.53;3.00;;;0.10;99.90;;;;;;5063000;28;20094;-32
2022/04/02 00:38:28;;;;;;;5.07;2.70;;;0.10;99.90;;;;;;5048527;28;20044;-32
2022/04/02 00:40:54;;;;;;;5.80;3.03;;;0.10;99.90;;;;;;5064302;28;20149;-32
2022/04/02 00:43:28;;;;;;;6.90;3.13;;;0.10;99.90;;;;;;5063413;28;20105;-35
2022/04/02 00:45:57;;;;;;;5.63;3.10;;;0.00;99.90;;;;;;5063364;28;20490;-31
2022/04/02 00:48:23;;;;;;;6.30;2.53;;;0.00;99.90;;;;;;5047666;28;20084;-32
2022/04/02 00:50:58;;;;;;;4.60;2.60;;;0.00;99.90;;;;;;5064204;28;20043;-32
2022/04/02 00:53:42;;;;;;;8.73;2.63;;;0.00;99.90;;;;;;5063355;28;20381;-32
2022/04/02 00:56:08;;;;;;;2.90;2.30;;;0.00;99.90;;;;;;5061671;28;20605;-35
2022/04/02 00:58:33;;;;;;;7.33;2.70;;;0.00;99.90;;;;;;5057941;28;20432;-33
2022/04/02 01:00:59;;;;;;;5.33;2.67;;;0.00;99.90;;;;;;5067643;28;20041;-32
2022/04/02 01:03:27;;;;;;;6.13;3.23;;;-0.10;99.90;;;;;;5067011;28;20471;-32
2022/04/02 01:05:52;;;;;;;4.33;2.40;;;-0.10;99.90;;;;;;5054456;28;20480;-34
2022/04/02 01:08:18;;;;;;;6.17;2.53;;;-0.10;99.90;;;;;;5031340;28;20083;-35
2022/04/02 01:10:45;;;;;;;4.90;2.80;;;-0.10;99.90;;;;;;5048110;28;20045;-34
2022/04/02 01:13:12;;;;;;;8.60;3.10;;;-0.10;99.90;;;;;;5046441;28;20492;-32
2022/04/02 01:15:38;;;;;;;4.20;2.30;;;-0.20;99.90;;;;;;5047593;28;20090;-34
2022/04/02 01:18:04;;;;;;;8.00;2.77;;;-0.20;99.90;;;;;;5031144;28;20049;-34
2022/04/02 01:20:31;;;;;;;6.23;2.70;;;-0.10;99.90;;;;;;5047644;28;20111;-33
2022/04/02 01:22:59;;;;;;;6.40;2.73;;;-0.20;99.90;;;;;;5046428;28;20044;-32
2022/04/02 01:25:34;;;;;;;7.10;2.70;;;-0.20;99.90;;;;;;5047184;28;20451;-34
2022/04/02 01:28:00;;;;;;;5.10;2.77;;;-0.20;99.90;;;;;;5030817;28;20091;-31
2022/04/02 01:30:28;;;;;;;5.47;2.67;;;-0.20;99.90;;;;;;5047350;28;20442;-34
2022/04/02 01:32:53;;;;;;;6.27;2.47;;;-0.20;99.90;;;;;;5044588;28;20053;-32
2022/04/02 01:35:21;;;;;;;4.77;2.60;;;-0.20;99.90;;;;;;5059447;28;20040;-31
2022/04/02 01:37:47;;;;;;;5.80;2.60;;;-0.20;99.90;;;;;;5050958;28;20052;-35
2022/04/02 01:40:13;;;;;;;5.17;2.70;;;-0.20;99.90;;;;;;5067146;28;20043;-34
2022/04/02 01:42:39;;;;;;;6.60;2.77;;;-0.20;99.90;;;;;;5064586;28;20045;-33
2022/04/02 01:45:05;;;;;;;6.77;2.70;;;-0.20;99.90;;;;;;5067441;28;20048;-32
2022/04/02 01:47:31;;;;;;;5.70;2.33;;;-0.30;99.90;;;;;;5050443;28;20052;-34
2022/04/02 01:49:57;;;;;;;5.67;2.50;;;-0.30;99.90;;;;;;5067075;28;20475;-35
2022/04/02 01:52:23;;;;;;;8.20;2.70;;;-0.30;99.90;;;;;;5065972;28;20053;-32
2022/04/02 01:54:48;;;;;;;6.87;2.60;;;-0.30;99.90;;;;;;5066828;28;20063;-34
2022/04/02 01:57:15;;;;;;;7.90;2.57;;;-0.30;99.90;;;;;;5048917;28;20057;-32
2022/04/02 01:59:44;;;;;;;5.37;2.40;;;-0.40;99.90;;;;;;5066831;28;20048;-31
2022/04/02 02:02:10;;;;;;;5.83;2.50;;;-0.40;99.90;;;;;;5065352;28;20045;-32
2022/04/02 02:04:37;;;;;;;7.97;2.80;;;-0.40;99.90;;;;;;5062855;28;20052;-32
2022/04/02 02:07:03;;;;;;;5.90;2.73;;;-0.40;99.90;;;;;;5028903;28;20977;-33
2022/04/02 02:09:30;;;;;;;6.50;2.50;;;-0.50;99.90;;;;;;5045842;28;20495;-32
2022/04/02 02:11:56;;;;;;;4.77;2.33;;;-0.50;99.90;;;;;;5046419;28;20044;-34
2022/04/02 02:14:22;;;;;;;9.13;2.60;;;-0.50;99.90;;;;;;5054475;28;20534;-32
2022/04/02 02:16:48;;;;;;;6.33;2.40;;;-0.50;99.90;;;;;;5049298;28;20083;-35
2022/04/02 02:19:13;;;;;;;5.73;2.67;;;-0.60;99.90;;;;;;5065574;28;20048;-32
2022/04/02 02:21:39;;;;;;;6.73;2.80;;;-0.50;99.90;;;;;;5064934;28;20049;-32
2022/04/02 02:24:06;;;;;;;6.00;2.23;;;-0.60;99.90;;;;;;5065246;28;20476;-34
2022/04/02 02:26:32;;;;;;;7.93;2.80;;;-0.60;99.90;;;;;;5052476;28;20148;-32
2022/04/02 02:28:58;;;;;;;5.23;2.30;;;-0.60;99.90;;;;;;5063302;28;20135;-32
2022/04/02 02:31:24;;;;;;;7.77;2.30;;;-0.60;99.90;;;;;;5065947;28;20613;-31
2022/04/02 02:36:35;;;;;;;4.67;2.20;;;-0.70;99.90;;;;;;5052426;28;20519;-33
2022/04/02 02:39:00;;;;;;;4.40;2.10;;;-0.70;99.90;;;;;;5064037;28;20048;-33
2022/04/02 02:41:26;;;;;;;6.10;2.20;;;-0.70;99.90;;;;;;5064157;28;20078;-32
2022/04/02 02:43:52;;;;;;;5.27;2.20;;;-0.70;99.90;;;;;;5064710;28;20052;-31
2022/04/02 02:46:18;;;;;;;4.57;1.90;;;-0.70;99.90;;;;;;5052261;28;20053;-31
2022/04/02 02:48:45;;;;;;;8.23;1.80;;;-0.70;99.90;;;;;;5059748;28;20407;-30
2022/04/02 02:51:11;;;;;;;5.80;1.83;;;-0.70;99.90;;;;;;5066126;28;20063;-33
2022/04/02 02:53:37;;;;;;;4.03;1.97;;;-0.70;99.90;;;;;;5063118;28;20095;-32
2022/04/02 02:56:03;;;;;;;7.27;2.10;;;-0.70;99.90;;;;;;5064360;28;20467;-34
2022/04/02 02:58:29;;;;;;;6.10;2.00;;;-0.70;99.90;;;;;;5049079;28;20136;-31
2022/04/02 03:00:54;;;;;;;5.13;1.73;;;-0.70;99.90;;;;;;5065587;28;20048;-34
2022/04/02 03:03:22;;;;;;;5.80;1.90;;;-0.80;99.90;;;;;;5060695;28;20079;-33
2022/04/02 03:05:48;;;;;;;5.87;1.90;;;-0.80;99.90;;;;;;5055798;28;20111;-31
2022/04/02 03:08:14;;;;;;;4.57;1.93;;;-0.80;99.90;;;;;;5028370;28;20427;-32
2022/04/02 03:10:40;;;;;;;3.57;1.70;;;-0.80;99.90;;;;;;5045547;28;20045;-33
2022/04/02 03:13:06;;;;;;;5.67;1.80;;;-0.80;99.90;;;;;;5042577;28;20079;-32
2022/04/02 03:15:32;;;;;;;4.03;1.40;;;-0.80;99.90;;;;;;5065211;28;20048;-30
2022/04/02 03:18:03;;;;;;;4.47;1.60;;;-0.80;99.90;;;;;;5048085;28;20396;-33
2022/04/02 03:20:29;;;;;;;6.07;1.60;;;-0.80;99.90;;;;;;5065085;28;20557;-34
2022/04/02 03:22:54;;;;;;;3.50;1.37;;;-0.80;99.90;;;;;;5064026;28;20048;-31
2022/04/02 03:25:23;;;;;;;2.30;1.07;;;-0.80;99.90;;;;;;5065100;28;20041;-34
2022/04/02 03:27:49;;;;;;;5.30;1.50;;;-0.80;99.90;;;;;;5048547;28;20137;-34
2022/04/02 03:30:18;;;;;;;5.87;1.07;;;-0.90;99.90;;;;;;5065187;28;20473;-34
2022/04/02 03:32:44;;;;;;;5.47;1.30;;;-0.90;99.90;;;;;;5064070;28;20045;-33
2022/04/02 03:35:19;;;;;;;6.20;1.20;;;-0.80;99.90;;;;;;5062586;28;20127;-31
2022/04/02 03:37:47;;;;;;;4.70;1.10;;;-0.90;99.90;;;;;;5047609;28;20049;-34
2022/04/02 03:40:17;;;;;;;6.17;1.27;;;-0.90;99.90;;;;;;5064914;28;20037;-35
2022/04/02 03:42:44;;;;;;;3.80;1.20;;;-0.80;99.90;;;;;;5064213;28;20039;-34
2022/04/02 03:45:11;;;;;;;9.13;1.27;;;-0.80;99.90;;;;;;5065118;28;20510;-32
2022/04/02 03:47:38;;;;;;;5.83;1.30;;;-0.80;99.90;;;;;;5048604;28;20056;-33
2022/04/02 03:50:05;;;;;;;2.83;0.87;;;-0.80;99.90;;;;;;5064496;28;20514;-32
2022/04/02 03:52:31;;;;;;;4.97;1.23;;;-0.80;99.90;;;;;;5064055;28;20047;-34
2022/04/02 03:54:57;;;;;;;5.10;1.10;;;-0.80;99.90;;;;;;5064773;28;20037;-33
2022/04/02 03:57:22;;;;;;;5.27;1.20;;;-0.80;99.90;;;;;;5048802;28;20055;-34
2022/04/02 03:59:48;;;;;;;6.73;1.13;;;-0.80;99.90;;;;;;5064460;28;20171;-34
2022/04/02 04:02:14;;;;;;;5.97;1.50;;;-0.80;99.90;;;;;;5064138;28;20080;-35
2022/04/02 04:04:40;;;;;;;5.40;1.50;;;-0.80;99.90;;;;;;5062802;28;20036;-35
2022/04/02 04:07:06;;;;;;;4.10;1.30;;;-0.80;99.90;;;;;;5029102;28;20437;-34
2022/04/02 04:09:32;;;;;;;4.50;1.37;;;-0.70;99.90;;;;;;5044371;28;20118;-32
2022/04/02 04:11:58;;;;;;;5.30;1.40;;;-0.70;99.90;;;;;;5044502;28;20044;-31
2022/04/02 04:14:25;;;;;;;4.67;1.60;;;-0.70;99.90;;;;;;5041955;28;20105;-32
2022/04/02 04:16:52;;;;;;;3.17;1.60;;;-0.70;99.90;;;;;;5029506;28;20056;-32
2022/04/02 04:19:18;;;;;;;6.03;1.67;;;-0.70;99.90;;;;;;5043073;28;20504;-33
2022/04/02 04:21:44;;;;;;;4.30;1.43;;;-0.70;99.90;;;;;;5042988;28;20404;-34
2022/04/02 04:24:10;;;;;;;2.80;1.30;;;-0.60;99.90;;;;;;5043635;28;20045;-32
2022/04/02 04:26:37;;;;;;;3.67;1.40;;;-0.60;99.90;;;;;;5029203;28;20048;-32
2022/04/02 04:29:03;;;;;;;3.80;1.40;;;-0.60;99.90;;;;;;5043113;28;20045;-35
2022/04/02 04:31:29;;;;;;;2.90;1.30;;;-0.50;99.90;;;;;;5048164;28;20041;-32
2022/04/02 04:33:55;;;;;;;3.53;1.40;;;-0.50;99.90;;;;;;5055543;28;20052;-31
2022/04/02 04:36:24;;;;;;;5.57;1.50;;;-0.40;99.90;;;;;;5057384;28;20048;-34
2022/04/02 04:38:51;;;;;;;5.47;1.50;;;-0.40;99.90;;;;;;5063304;28;20105;-34
2022/04/02 04:41:17;;;;;;;4.17;1.30;;;-0.30;99.90;;;;;;5068576;28;20348;-33
2022/04/02 04:43:46;;;;;;;4.83;1.40;;;-0.30;99.90;;;;;;5065662;28;20044;-33
2022/04/02 04:46:12;;;;;;;6.10;1.63;;;-0.30;99.90;;;;;;5059010;28;20116;-33
2022/04/02 04:48:37;;;;;;;4.13;1.47;;;-0.20;99.90;;;;;;5060752;28;20566;-33
2022/04/02 04:51:04;;;;;;;4.87;1.37;;;-0.20;99.90;;;;;;5068282;28;20138;-34
2022/04/02 04:53:31;;;;;;;5.07;1.07;;;-0.20;99.90;;;;;;5067584;28;20097;-32
2022/04/02 04:55:57;;;;;;;6.67;1.40;;;-0.20;99.90;;;;;;5068217;28;20048;-32
2022/04/02 04:58:23;;;;;;;6.57;1.80;;;-0.10;99.90;;;;;;5051774;28;20044;-31
2022/04/02 05:00:49;;;;;;;4.00;1.33;;;-0.10;99.90;;;;;;5067913;28;20045;-32
2022/04/02 05:03:15;;;;;;;4.30;1.40;;;-0.10;99.90;;;;;;5065330;28;20045;-31
2022/04/02 05:05:40;;;;;;;6.20;1.20;;;-0.10;99.90;;;;;;5059479;28;20036;-34
2022/04/02 05:08:07;;;;;;;3.20;1.20;;;-0.10;99.90;;;;;;5031420;28;20594;-33
2022/04/02 05:10:33;;;;;;;4.00;1.37;;;0.00;99.90;;;;;;5047560;28;20060;-31
2022/04/02 05:13:03;;;;;;;4.40;1.43;;;0.00;99.90;;;;;;5047163;28;20033;-34
2022/04/02 05:15:28;;;;;;;4.77;1.30;;;0.00;99.90;;;;;;5047510;28;20037;-31
2022/04/02 05:17:55;;;;;;;4.97;1.27;;;0.00;99.90;;;;;;5031640;28;20045;-32
2022/04/02 05:20:21;;;;;;;4.93;1.60;;;0.00;99.90;;;;;;5047028;28;20110;-33
2022/04/02 05:22:47;;;;;;;4.60;1.43;;;0.00;99.90;;;;;;5045055;28;20049;-35
2022/04/02 05:25:14;;;;;;;4.10;1.40;;;0.00;99.90;;;;;;5047269;28;20116;-34
2022/04/02 05:27:40;;;;;;;4.50;1.50;;;0.00;99.90;;;;;;5031413;28;20037;-34
2022/04/02 05:30:07;;;;;;;3.80;1.53;;;-0.10;99.90;;;;;;5047447;28;20044;-34
2022/04/02 05:32:33;;;;;;;5.50;1.70;;;-0.10;99.90;;;;;;5051337;28;20181;-33
2022/04/02 05:34:58;;;;;;;3.60;1.50;;;-0.10;99.90;;;;;;5049641;28;20065;-34
2022/04/02 05:37:24;;;;;;;6.10;1.60;;;-0.10;99.90;;;;;;5030938;28;20081;-32
2022/04/02 05:39:50;;;;;;;8.37;1.43;;;-0.10;99.90;;;;;;5062344;28;20046;-35
2022/04/02 05:42:17;;;;;;;8.27;1.80;;;0.00;99.90;;;;;;5065337;28;20141;-35
2022/04/02 05:44:42;;;;;;;4.60;1.70;;;0.00;99.90;;;;;;5047919;28;20037;-34
2022/04/02 05:47:09;;;;;;;2.70;1.30;;;0.00;99.90;;;;;;5035088;28;20141;-32
2022/04/02 05:49:36;;;;;;;7.63;1.37;;;0.00;99.90;;;;;;5066164;28;20063;-33
2022/04/02 05:52:04;;;;;;;9.27;1.50;;;0.00;99.90;;;;;;5066789;28;20059;-34
2022/04/02 05:54:30;;;;;;;5.87;1.90;;;0.00;99.90;;;;;;5064495;28;20041;-33
2022/04/02 05:56:57;;;;;;;5.70;1.60;;;0.10;99.90;;;;;;5051864;28;20102;-33
2022/04/02 05:59:23;;;;;;;7.17;1.90;;;0.10;99.90;;;;;;5065620;28;20063;-35
2022/04/02 06:01:48;;;;;;;3.70;1.63;;;0.10;99.90;;;;;;5066790;28;20048;-33
2022/04/02 06:04:15;;;;;;;4.63;1.50;;;0.20;99.90;;;;;;5064542;28;20569;-31
2022/04/02 06:06:41;;;;;;;6.43;1.63;;;0.20;99.90;;;;;;5036209;28;20546;-32
2022/04/02 06:09:06;;;;;;;8.70;2.03;;;0.20;99.90;;;;;;5044297;28;20075;-35
2022/04/02 06:11:32;;;;;;;7.07;1.87;;;0.20;99.90;;;;;;5046585;28;20048;-31
2022/04/02 06:13:58;;;;;;;4.17;2.00;;;0.30;99.90;;;;;;5045923;28;20045;-35
2022/04/02 06:16:25;;;;;;;6.40;2.10;;;0.30;99.90;;;;;;5034432;28;20442;-34
2022/04/02 06:18:51;;;;;;;5.37;2.00;;;0.40;99.90;;;;;;5042780;28;20044;-33
2022/04/02 06:21:18;;;;;;;4.73;1.63;;;0.40;99.90;;;;;;5046317;28;20462;-35
2022/04/02 06:23:43;;;;;;;5.43;1.97;;;0.40;99.90;;;;;;5045689;28;20041;-34
2022/04/02 06:26:10;;;;;;;5.00;2.00;;;0.50;99.90;;;;;;5038647;28;20115;-34
2022/04/02 06:28:37;;;;;;;6.57;1.93;;;0.50;99.90;;;;;;5051349;28;20036;-35
2022/04/02 06:31:04;;;;;;;4.83;1.80;;;0.50;99.90;;;;;;5065689;28;20411;-32
2022/04/02 06:33:32;;;;;;;4.83;1.60;;;0.60;99.90;;;;;;5062307;28;20040;-32
2022/04/02 06:35:57;;;;;;;6.87;1.60;;;0.60;99.90;;;;;;5065993;28;20060;-32
2022/04/02 06:38:23;;;;;;;5.07;1.80;;;0.60;99.90;;;;;;5050569;28;20093;-32
2022/04/02 06:40:49;;;;;;;6.27;1.83;;;0.70;99.90;;;;;;5065320;28;20522;-35
2022/04/02 06:43:14;;;;;;;5.93;1.90;;;0.70;99.90;;;;;;5065512;28;20075;-31
2022/04/02 06:45:40;;;;;;;4.23;1.73;;;0.70;99.90;;;;;;5065684;28;20051;-34
2022/04/02 06:48:06;;;;;;;4.50;1.77;;;0.80;99.90;;;;;;5049794;28;20449;-34
2022/04/02 06:50:31;;;;;;;8.33;1.83;;;0.80;99.90;;;;;;5065197;28;20033;-33
2022/04/02 06:52:57;;;;;;;5.10;1.73;;;0.90;99.90;;;;;;5064312;28;20052;-33
2022/04/02 06:55:23;;;;;;;3.77;1.67;;;0.90;99.90;;;;;;5065494;28;20028;-33
2022/04/02 06:57:52;;;;;;;3.60;1.77;;;1.00;99.90;;;;;;5049452;28;20135;-34
2022/04/02 07:00:19;;;;;;;8.90;2.20;;;1.00;99.90;;;;;;5065639;28;20495;-32
2022/04/02 07:02:45;;;;;;;5.93;2.20;;;1.10;99.90;;;;;;5058907;28;20139;-35
2022/04/02 07:05:10;;;;;;;5.47;2.10;;;1.10;99.90;;;;;;5063082;28;20511;-34
2022/04/02 07:07:36;;;;;;;8.33;2.70;;;1.20;99.90;;;;;;5043992;28;20539;-35
2022/04/02 07:10:06;;;;;;;9.40;2.10;;;1.20;99.90;;;;;;5047241;28;20036;-34
2022/04/02 07:12:33;;;;;;;8.43;2.30;;;1.30;99.90;;;;;;5043923;28;20048;-33
2022/04/02 07:14:59;;;;;;;7.53;2.43;;;1.30;99.90;;;;;;5048783;28;20531;-33
2022/04/02 07:17:26;;;;;;;5.73;2.33;;;1.40;99.90;;;;;;5033635;28;20053;-35
2022/04/02 07:19:55;;;;;;;3.10;1.87;;;1.40;99.90;;;;;;5054773;28;20059;-33
2022/04/02 07:22:23;;;;;;;5.70;2.30;;;1.50;99.90;;;;;;5056493;28;20052;-33
2022/04/02 07:24:51;;;;;;;4.03;1.90;;;1.50;99.90;;;;;;5063300;28;20044;-36
2022/04/02 07:27:21;;;;;;;9.10;2.97;;;1.50;99.90;;;;;;5046482;28;20052;-35
2022/04/02 07:29:51;;;;;;;4.57;2.40;;;1.60;99.90;;;;;;5063053;28;20052;-34
2022/04/02 07:32:17;;;;;;;4.00;1.70;;;1.60;99.90;;;;;;5059526;28;20049;-34
2022/04/02 07:34:43;;;;;;;3.23;1.73;;;1.70;99.90;;;;;;5062345;28;20503;-36
2022/04/02 07:37:20;;;;;;;3.90;2.00;;;1.70;99.90;;;;;;5047171;28;20040;-36
2022/04/02 07:40:16;;;;;;;2.87;1.60;;;1.70;99.90;;;;;;5062532;28;20036;-32
2022/04/02 07:43:04;;;;;;;4.83;1.67;;;1.70;99.90;;;;;;5059097;28;20213;-34
2022/04/02 07:45:56;;;;;;;6.10;1.93;;;1.70;99.90;;;;;;5060591;28;20056;-32
2022/04/02 07:48:22;;;;;;;;;;;1.70;99.90;;;;;;5046306;28;20139;-36
2022/04/02 07:50:48;;;;;;;3.27;1.40;;;1.70;99.90;;;;;;5057456;28;20007;-35
2022/04/02 07:53:24;;;;;;;3.60;1.37;;;1.70;99.90;;;;;;5045731;28;20583;-33
2022/04/02 07:56:03;;;;;;;5.27;1.70;;;1.80;99.90;;;;;;5042322;28;20057;-33
2022/04/02 07:58:35;;;;;;;3.47;1.60;;;1.80;99.90;;;;;;5041176;28;20115;-34
2022/04/02 08:01:03;;;;;;;4.10;1.60;;;1.70;99.90;;;;;;5045398;28;20045;-33
2022/04/02 08:03:33;;;;;;;6.00;1.73;;;1.80;99.90;;;;;;5045412;28;20037;-36
2022/04/02 08:05:59;;;;;;;2.83;1.30;;;1.90;99.90;;;;;;5045989;28;20045;-36
2022/04/02 08:08:25;;;;;;;3.57;1.57;;;1.90;99.90;;;;;;5027769;28;20079;-34
2022/04/02 08:10:53;;;;;;;3.43;1.70;;;2.00;99.90;;;;;;5043040;28;20500;-36
2022/04/02 08:13:20;;;;;;;4.20;1.60;;;2.10;99.90;;;;;;5039028;28;20293;-35
2022/04/02 08:15:46;;;;;;;6.77;1.40;;;2.20;99.90;;;;;;5040892;28;20103;-34
2022/04/02 08:18:16;;;;;;;5.50;1.80;;;2.30;99.90;;;;;;5024817;28;20053;-34
2022/04/02 08:20:43;;;;;;;4.77;1.37;;;2.40;99.90;;;;;;5042030;28;20520;-32
2022/04/02 08:23:08;;;;;;;3.10;1.43;;;2.50;99.90;;;;;;5042295;28;20049;-32
2022/04/02 08:25:37;;;;;;;3.90;1.60;;;2.60;99.90;;;;;;5041874;28;20091;-33
2022/04/02 08:28:13;;;;;;;5.43;1.40;;;2.70;99.90;;;;;;5024851;28;20276;-34
2022/04/02 08:30:53;;;;;;;4.67;1.47;;;2.80;99.90;;;;;;5042687;28;20045;-32
2022/04/02 08:33:40;;;;;;;3.27;1.23;;;2.90;99.90;;;;;;5044036;28;20544;-33
2022/04/02 08:36:29;;;;;;;4.30;1.43;;;3.00;99.90;;;;;;5043046;28;20102;-34
2022/04/02 08:39:05;;;;;;;4.17;1.43;;;3.10;99.90;;;;;;5049965;28;20040;-35
2022/04/02 08:42:01;;;;;;;4.80;1.33;;;3.20;99.90;;;;;;5059893;28;20102;-33
2022/04/02 08:45:15;;;;;;;4.07;1.10;;;3.30;99.90;;;;;;5056665;28;20072;-33
2022/04/02 08:48:02;;;;;;;6.70;1.23;;;3.40;99.90;;;;;;5040342;28;20136;-34
2022/04/02 08:50:30;;;;;;;5.00;1.17;;;3.50;99.90;;;;;;5058205;28;20129;-35
2022/04/02 08:53:05;;;;;;;4.67;1.47;;;3.50;99.90;;;;;;5049095;28;20477;-35
2022/04/02 08:55:34;;;;;;;7.50;1.73;;;3.50;99.90;;;;;;5043537;28;20049;-34
2022/04/02 08:58:09;;;;;;;2.83;1.37;;;3.50;99.90;;;;;;5044247;28;20044;-33
2022/04/02 09:00:39;;;;;;;5.47;1.37;;;3.50;99.90;;;;;;5056913;28;20124;-36
2022/04/02 09:03:37;;;;;;;2.72;1.20;;;3.50;99.90;;;;;;5044376;28;20045;-35
2022/04/02 09:06:25;;;;;;;1.53;0.87;;;3.60;99.90;;;;;;5046391;28;20398;-34
2022/04/02 09:09:15;;;;;;;3.03;1.30;;;3.60;99.90;;;;;;5042901;28;20052;-33
2022/04/02 09:11:46;;;;;;;5.83;1.30;;;3.70;99.90;;;;;;5043808;28;20466;-32
2022/04/02 09:14:21;;;;;;;7.47;1.00;;;3.80;99.90;;;;;;5042654;28;20048;-35
2022/04/02 09:17:13;;;;;;;2.40;1.10;;;4.00;99.90;;;;;;5032405;28;20045;-31
2022/04/02 09:20:12;;;;;;;4.10;1.33;;;4.10;99.90;;;;;;5046510;28;20044;-32
2022/04/02 09:22:50;;;;;;;4.37;1.17;;;4.10;99.90;;;;;;5046540;28;20045;-34
2022/04/02 09:25:30;;;;;;;5.07;1.13;;;4.10;99.90;;;;;;5047354;28;20377;-34
2022/04/02 09:27:59;;;;;;;6.60;1.10;;;4.20;99.90;;;;;;5049872;28;20485;-32
2022/04/02 09:31:09;;;;;;;4.40;1.10;;;4.20;99.90;;;;;;5067164;28;20329;-33
2022/04/02 09:33:37;;;;;;;5.90;1.70;;;4.30;99.90;;;;;;5061355;28;20052;-33
2022/04/02 09:36:38;;;;;;;3.17;1.10;;;4.40;99.90;;;;;;5053606;28;20227;-35
2022/04/02 09:39:27;;;;;;;4.00;1.20;;;4.50;99.90;;;;;;5052759;28;20531;-33
2022/04/02 09:42:09;;;;;;;4.63;0.87;;;4.60;99.90;;;;;;5063581;28;20056;-32
2022/04/02 09:44:46;;;;;;;4.63;0.90;;;4.70;99.90;;;;;;5027450;28;20057;-31
2022/04/02 09:47:28;;;;;;;3.73;1.00;;;4.70;99.90;;;;;;5012689;28;20531;-36
2022/04/02 09:50:13;;;;;;;2.93;1.00;;;4.70;99.90;;;;;;5060808;28;20044;-33
2022/04/02 09:52:53;;;;;;;2.77;0.90;;;4.80;99.90;;;;;;5048154;28;20165;-35
2022/04/02 09:55:26;;;;;;;7.70;1.20;;;4.80;99.90;;;;;;5047116;28;20477;-33
2022/04/02 09:58:12;;;;;;;2.23;0.80;;;4.80;99.90;;;;;;5030071;28;20488;-34
2022/04/02 10:01:05;;;;;;;2.90;0.80;;;4.80;99.90;;;;;;5056203;28;20147;-35
2022/04/02 10:03:52;;;;;;;7.77;1.30;;;4.80;99.90;;;;;;5063066;28;20041;-35
2022/04/02 10:06:20;;;;;;;4.27;0.77;;;4.80;99.90;;;;;;5043227;28;20102;-31
2022/04/02 10:09:14;;;;;;;7.43;1.10;;;4.80;99.90;;;;;;5054031;28;20052;-35
2022/04/02 10:11:53;;;;;;;1.93;0.80;;;4.80;99.90;;;;;;5066981;28;20135;-32
2022/04/02 10:14:22;;;;;;;3.20;0.90;;;4.80;99.90;;;;;;5065765;28;20044;-34
2022/04/02 10:16:53;;;;;;;4.07;0.60;;;4.80;99.90;;;;;;5051221;28;20044;-32
2022/04/02 10:19:29;;;;;;;4.90;0.80;;;4.80;99.90;;;;;;5065289;28;20245;-36
2022/04/02 10:21:57;;;;;;;3.63;1.00;;;4.80;99.90;;;;;;5066690;28;20470;-34
2022/04/02 10:24:25;;;;;;;4.70;0.90;;;4.80;99.90;;;;;;5063670;28;20054;-35
2022/04/02 10:26:56;;;;;;;3.37;0.80;;;4.80;99.90;;;;;;5050475;28;20059;-33
2022/04/02 10:29:55;;;;;;;4.32;0.82;;;4.90;99.90;;;;;;5063510;28;20461;-33
2022/04/02 10:32:47;;;;;;;5.60;0.90;;;4.80;99.90;;;;;;5059179;28;20735;-33
2022/04/02 10:35:14;;;;;;;3.28;0.82;;;4.90;99.90;;;;;;5062311;28;20048;-34
2022/04/02 10:37:42;;;;;;;3.53;1.03;;;5.00;99.90;;;;;;5050868;28;20101;-38
2022/04/02 10:40:10;;;;;;;3.77;1.00;;;5.10;99.90;;;;;;5063867;28;20143;-36
2022/04/02 10:42:50;;;;;;;5.20;1.10;;;5.00;99.90;;;;;;5060122;28;20039;-34
2022/04/02 10:45:18;;;;;;;3.30;0.80;;;5.00;99.90;;;;;;5064325;28;20194;-32
2022/04/02 10:47:50;;;;;;;6.93;1.10;;;5.10;99.90;;;;;;5037553;28;20041;-31
2022/04/02 10:50:22;;;;;;;4.43;0.70;;;5.20;99.90;;;;;;5062769;28;20162;-32
2022/04/02 10:52:49;;;;;;;4.73;0.90;;;5.30;99.90;;;;;;5064961;28;20044;-32
2022/04/02 10:55:17;;;;;;;3.23;0.77;;;5.40;99.90;;;;;;5065425;28;20048;-34
2022/04/02 10:57:43;;;;;;;2.63;1.10;;;5.40;99.90;;;;;;5049241;28;20044;-32
2022/04/02 11:00:10;;;;;;;6.40;0.97;;;5.50;99.90;;;;;;5065683;28;20064;-33
2022/04/02 11:02:46;;;;;;;4.70;1.00;;;5.60;99.90;;;;;;5063100;28;20044;-34
2022/04/02 11:05:14;;;;;;;4.00;0.93;;;5.70;99.90;;;;;;5061545;28;20121;-34
2022/04/02 11:07:46;;;;;;;6.80;1.07;;;5.70;99.90;;;;;;5029117;28;20522;-34
2022/04/02 11:10:14;;;;;;;5.40;1.10;;;5.80;99.90;;;;;;5043860;28;20171;-34
2022/04/02 11:12:44;;;;;;;4.40;0.80;;;5.80;99.90;;;;;;5045207;28;20051;-33
2022/04/02 11:15:21;;;;;;;4.80;0.93;;;5.90;99.90;;;;;;5045419;28;20519;-32
2022/04/02 11:17:54;;;;;;;6.50;1.10;;;5.90;99.90;;;;;;5029794;28;20231;-32
2022/04/02 11:20:25;;;;;;;2.30;0.80;;;5.90;99.90;;;;;;5055672;28;20048;-33
2022/04/02 11:23:01;;;;;;;3.05;1.10;;;6.10;99.90;;;;;;5064704;28;20051;-33
2022/04/02 11:25:34;;;;;;;3.77;1.07;;;6.00;99.90;;;;;;5065009;28;20044;-32
2022/04/02 11:28:08;;;;;;;6.40;1.03;;;5.90;99.90;;;;;;5049253;28;20117;-32
2022/04/02 11:30:35;;;;;;;2.80;0.77;;;5.90;99.90;;;;;;5061814;28;20234;-36
2022/04/02 11:33:09;;;;;;;4.80;1.00;;;5.90;99.90;;;;;;5063458;28;20173;-35
2022/04/02 11:35:56;;;;;;;2.83;0.77;;;5.90;99.90;;;;;;5065143;28;20086;-33
2022/04/02 11:38:22;;;;;;;2.07;0.67;;;6.00;99.90;;;;;;5049199;28;20076;-33
2022/04/02 11:41:27;;;;;;;5.60;0.93;;;6.10;99.90;;;;;;5064631;28;20064;-34
2022/04/02 11:44:06;;;;;;;6.83;0.80;;;6.10;99.90;;;;;;5063903;28;20411;-32
2022/04/02 11:46:54;;;;;;;2.87;0.80;;;6.20;99.90;;;;;;5050710;28;20466;-32
2022/04/02 11:49:40;;;;;;;5.03;1.10;;;6.30;99.90;;;;;;5064178;28;20554;-33
2022/04/02 11:52:12;;;;;;;6.47;0.87;;;6.40;99.90;;;;;;5063915;28;20480;-34
2022/04/02 11:54:57;;;;;;;;;;;6.50;99.90;;;;;;5065218;28;20076;-33
2022/04/02 11:57:22;;;;;;;4.07;1.00;;;6.50;99.90;;;;;;5048769;28;20196;-34
2022/04/02 11:59:55;;;;;;;4.67;1.20;;;6.60;99.90;;;;;;5064844;28;20094;-33
2022/04/02 12:02:40;;;;;;;2.80;0.73;;;6.60;99.90;;;;;;5061682;28;20086;-32
2022/04/02 12:05:07;;;;;;;2.63;0.93;;;6.70;99.90;;;;;;5060437;28;20051;-34
2022/04/02 12:07:46;;;;;;;3.23;0.80;;;6.60;99.90;;;;;;5039253;28;20047;-34
2022/04/02 12:10:13;;;;;;;4.20;0.90;;;6.60;99.90;;;;;;5034631;28;20131;-33
2022/04/02 12:12:58;;;;;;;4.57;0.77;;;6.60;99.90;;;;;;5060350;28;20513;-34
2022/04/02 12:15:24;;;;;;;2.57;0.70;;;6.60;99.90;;;;;;5047343;28;20037;-33
2022/04/02 12:18:02;;;;;;;3.53;0.80;;;6.60;99.90;;;;;;5028865;28;20037;-34
2022/04/02 12:20:30;;;;;;;5.17;1.00;;;6.60;99.90;;;;;;5060371;28;20045;-34
2022/04/02 12:23:12;;;;;;;3.87;0.83;;;6.50;99.90;;;;;;5053703;28;20044;-32
2022/04/02 12:25:45;;;;;;;3.53;0.70;;;6.50;99.90;;;;;;5063177;28;20052;-35
2022/04/02 12:28:12;;;;;;;3.70;0.90;;;6.50;99.90;;;;;;5048302;28;20051;-34
2022/04/02 12:30:41;;;;;;;3.10;0.93;;;6.40;99.90;;;;;;5061763;28;20052;-31
2022/04/02 12:33:11;;;;;;;4.00;0.80;;;6.50;99.90;;;;;;5062031;28;20112;-32
2022/04/02 12:35:37;;;;;;;2.20;0.80;;;6.60;99.90;;;;;;5064127;28;20794;-33
2022/04/02 12:38:07;;;;;;;4.00;1.10;;;6.40;99.90;;;;;;5042319;28;20056;-34
2022/04/02 12:40:41;;;;;;;3.73;0.90;;;6.50;99.90;;;;;;5044995;28;20043;-35
2022/04/02 12:43:13;;;;;;;3.67;1.03;;;6.30;99.90;;;;;;5039803;28;20473;-32
2022/04/02 12:45:39;;;;;;;2.13;0.77;;;6.40;99.90;;;;;;5045979;28;20128;-33
2022/04/02 12:48:11;;;;;;;5.07;0.90;;;6.40;99.90;;;;;;5047955;28;20129;-34
2022/04/02 12:50:55;;;;;;;2.93;0.90;;;6.30;99.90;;;;;;5065689;28;20044;-33
2022/04/02 12:53:33;;;;;;;5.17;1.00;;;6.30;99.90;;;;;;5065798;28;20048;-33
2022/04/02 12:56:01;;;;;;;3.13;1.00;;;6.30;99.90;;;;;;5066889;28;20426;-34
2022/04/02 12:58:38;;;;;;;3.80;0.70;;;6.40;99.90;;;;;;5048393;28;20048;-36
2022/04/02 13:01:30;;;;;;;2.30;0.50;;;6.40;99.90;;;;;;5061491;28;20780;-34
2022/04/02 13:04:03;;;;;;;2.67;0.70;;;6.50;99.90;;;;;;5063364;28;20044;-36
2022/04/02 13:06:41;;;;;;;2.80;1.13;;;6.60;99.90;;;;;;5045235;28;20048;-37
2022/04/02 13:09:15;;;;;;;2.73;1.10;;;6.70;99.90;;;;;;5062059;28;20068;-33
2022/04/02 13:11:46;;;;;;;4.63;1.03;;;6.70;99.90;;;;;;5022647;28;20395;-33
2022/04/02 13:14:17;;;;;;;1.92;0.90;;;6.70;99.90;;;;;;5058675;28;20049;-34
2022/04/02 13:16:45;;;;;;;3.42;1.10;;;6.70;99.90;;;;;;5025327;28;20044;-35